sensor_id;sensor_type;location;lat;lon;timestamp;pressure;altitude;pressure_sealevel;temperature;humidity
49055;BME280;35405;52.344;14.530;2023-02-27T06:30:12;101888.47;;;-1.80;100.00
49055;BME280;35405;52.344;14.530;2023-02-27T06:32:38;101888.28;;;-1.79;100.00
49055;BME280;35405;52.344;14.530;2023-02-27T06:35:03;101892.22;;;-1.75;100.00
49055;BME280;35405;52.344;14.530;2023-02-27T06:37:30;101897.69;;;-1.68;100.00
49055;BME280;35405;52.344;14.530;2023-02-27T06:39:56;101893.81;;;-1.66;100.00
49055;BME280;35405;52.344;14.530;2023-02-27T06:42:21;101891.91;;;-1.57;100.00
49055;BME280;35405;52.344;14.530;2023-02-27T06:44:46;101891.91;;;-1.57;100.00
49055;BME280;35405;52.344;14.530;2023-02-27T06:47:11;101908.28;;;-1.60;100.00
49055;BME280;35405;52.344;14.530;2023-02-27T06:49:36;101908.94;;;-1.58;100.00
49055;BME280;35405;52.344;14.530;2023-02-27T06:52:02;101900.03;;;-1.50;100.00
49055;BME280;35405;52.344;14.530;2023-02-27T06:54:27;101912.50;;;-1.51;100.00
49055;BME280;35405;52.344;14.530;2023-02-27T06:56:52;101910.16;;;-1.46;100.00
49055;BME280;35405;52.344;14.530;2023-02-27T06:59:17;101899.41;;;-1.38;100.00
49055;BME280;35405;52.344;14.530;2023-02-27T07:01:42;101907.84;;;-1.34;100.00
49055;BME280;35405;52.344;14.530;2023-02-27T07:04:10;101912.19;;;-1.33;100.00
49055;BME280;35405;52.344;14.530;2023-02-27T07:06:37;101908.22;;;-1.37;100.00
49055;BME280;35405;52.344;14.530;2023-02-27T07:09:02;101916.53;;;-1.32;100.00
49055;BME280;35405;52.344;14.530;2023-02-27T07:11:27;101913.13;;;-1.26;100.00
49055;BME280;35405;52.344;14.530;2023-02-27T07:13:53;101926.84;;;-1.14;100.00
49055;BME280;35405;52.344;14.530;2023-02-27T07:16:18;101923.31;;;-1.15;100.00
49055;BME280;35405;52.344;14.530;2023-02-27T07:18:44;101928.22;;;-1.18;100.00
49055;BME280;35405;52.344;14.530;2023-02-27T07:21:09;101932.25;;;-1.22;100.00
49055;BME280;35405;52.344;14.530;2023-02-27T07:23:37;101942.13;;;-1.23;100.00
49055;BME280;35405;52.344;14.530;2023-02-27T07:26:02;101941.56;;;-1.18;100.00
49055;BME280;35405;52.344;14.530;2023-02-27T07:28:28;101939.63;;;-1.09;100.00
49055;BME280;35405;52.344;14.530;2023-02-27T07:30:53;101938.06;;;-1.04;100.00
49055;BME280;35405;52.344;14.530;2023-02-27T07:33:21;101933.28;;;-1.08;100.00
49055;BME280;35405;52.344;14.530;2023-02-27T07:35:46;101948.22;;;-0.99;100.00
49055;BME280;35405;52.344;14.530;2023-02-27T07:38:11;101945.06;;;-0.88;100.00
49055;BME280;35405;52.344;14.530;2023-02-27T07:40:37;101946.63;;;-0.79;100.00
49055;BME280;35405;52.344;14.530;2023-02-27T07:43:02;101944.38;;;-0.60;100.00
49055;BME280;35405;52.344;14.530;2023-02-27T07:45:27;101939.88;;;-0.45;100.00
49055;BME280;35405;52.344;14.530;2023-02-27T07:47:52;101946.28;;;-0.39;100.00
49055;BME280;35405;52.344;14.530;2023-02-27T07:50:17;101943.16;;;-0.43;100.00
49055;BME280;35405;52.344;14.530;2023-02-27T07:52:43;101948.53;;;-0.43;100.00
49055;BME280;35405;52.344;14.530;2023-02-27T07:55:08;101948.81;;;-0.53;100.00
49055;BME280;35405;52.344;14.530;2023-02-27T07:57:34;101953.41;;;-0.47;100.00
49055;BME280;35405;52.344;14.530;2023-02-27T07:59:59;101956.75;;;-0.44;100.00
49055;BME280;35405;52.344;14.530;2023-02-27T08:02:25;101962.63;;;-0.49;100.00
49055;BME280;35405;52.344;14.530;2023-02-27T08:04:50;101968.91;;;-0.57;100.00
49055;BME280;35405;52.344;14.530;2023-02-27T08:07:16;101969.75;;;-0.56;100.00
49055;BME280;35405;52.344;14.530;2023-02-27T08:09:41;101961.44;;;-0.47;100.00
49055;BME280;35405;52.344;14.530;2023-02-27T08:12:06;101974.88;;;-0.40;100.00
49055;BME280;35405;52.344;14.530;2023-02-27T08:14:32;101984.09;;;-0.42;100.00
49055;BME280;35405;52.344;14.530;2023-02-27T08:16:57;101985.75;;;-0.41;100.00
49055;BME280;35405;52.344;14.530;2023-02-27T08:19:24;101987.25;;;-0.54;100.00
49055;BME280;35405;52.344;14.530;2023-02-27T08:21:49;101994.69;;;-0.49;100.00
49055;BME280;35405;52.344;14.530;2023-02-27T08:24:14;101988.59;;;-0.43;100.00
49055;BME280;35405;52.344;14.530;2023-02-27T08:26:39;101990.38;;;-0.50;100.00
49055;BME280;35405;52.344;14.530;2023-02-27T08:29:04;101999.41;;;-0.51;100.00
49055;BME280;35405;52.344;14.530;2023-02-27T08:31:30;102001.22;;;-0.52;100.00
49055;BME280;35405;52.344;14.530;2023-02-27T08:33:55;102000.88;;;-0.49;100.00
49055;BME280;35405;52.344;14.530;2023-02-27T08:36:20;102006.13;;;-0.40;100.00
49055;BME280;35405;52.344;14.530;2023-02-27T08:38:45;101998.00;;;-0.32;100.00
49055;BME280;35405;52.344;14.530;2023-02-27T08:41:12;102009.88;;;-0.20;100.00
49055;BME280;35405;52.344;14.530;2023-02-27T08:43:37;102007.34;;;-0.07;100.00
49055;BME280;35405;52.344;14.530;2023-02-27T08:46:02;102003.09;;;-0.01;100.00
49055;BME280;35405;52.344;14.530;2023-02-27T08:48:27;102005.44;;;0.09;100.00
49055;BME280;35405;52.344;14.530;2023-02-27T08:50:52;102003.41;;;0.11;100.00
49055;BME280;35405;52.344;14.530;2023-02-27T08:53:18;102008.56;;;0.27;100.00
49055;BME280;35405;52.344;14.530;2023-02-27T08:55:43;102007.97;;;0.32;100.00
49055;BME280;35405;52.344;14.530;2023-02-27T08:58:08;102011.13;;;0.42;100.00
49055;BME280;35405;52.344;14.530;2023-02-27T09:00:42;102012.50;;;0.31;100.00
49055;BME280;35405;52.344;14.530;2023-02-27T09:03:08;102016.38;;;0.29;100.00
49055;BME280;35405;52.344;14.530;2023-02-27T09:05:33;102021.16;;;0.55;100.00
49055;BME280;35405;52.344;14.530;2023-02-27T09:07:59;102019.63;;;0.67;100.00
49055;BME280;35405;52.344;14.530;2023-02-27T09:10:25;102021.22;;;0.89;100.00
49055;BME280;35405;52.344;14.530;2023-02-27T09:12:51;102010.25;;;1.06;100.00
49055;BME280;35405;52.344;14.530;2023-02-27T09:15:16;102014.00;;;1.11;100.00
49055;BME280;35405;52.344;14.530;2023-02-27T09:17:41;102014.66;;;1.20;100.00
49055;BME280;35405;52.344;14.530;2023-02-27T09:20:07;102019.31;;;1.40;100.00
49055;BME280;35405;52.344;14.530;2023-02-27T09:22:33;102018.09;;;1.42;100.00
49055;BME280;35405;52.344;14.530;2023-02-27T09:24:58;102029.69;;;1.56;100.00
49055;BME280;35405;52.344;14.530;2023-02-27T09:27:24;102026.44;;;1.60;100.00
49055;BME280;35405;52.344;14.530;2023-02-27T09:29:49;102024.44;;;1.76;100.00
49055;BME280;35405;52.344;14.530;2023-02-27T09:32:20;102026.69;;;1.72;100.00
49055;BME280;35405;52.344;14.530;2023-02-27T09:34:45;102025.25;;;1.76;100.00
49055;BME280;35405;52.344;14.530;2023-02-27T09:37:11;102017.50;;;2.01;100.00
49055;BME280;35405;52.344;14.530;2023-02-27T09:39:36;102020.88;;;2.17;100.00
49055;BME280;35405;52.344;14.530;2023-02-27T09:42:05;102020.81;;;2.03;100.00
49055;BME280;35405;52.344;14.530;2023-02-27T09:44:42;102019.63;;;2.13;100.00
49055;BME280;35405;52.344;14.530;2023-02-27T09:47:13;102024.38;;;2.11;100.00
49055;BME280;35405;52.344;14.530;2023-02-27T09:50:01;102015.13;;;2.40;100.00
49055;BME280;35405;52.344;14.530;2023-02-27T09:52:25;102016.59;;;2.56;100.00
49055;BME280;35405;52.344;14.530;2023-02-27T09:54:50;102017.44;;;2.63;100.00
49055;BME280;35405;52.344;14.530;2023-02-27T09:57:20;102022.19;;;2.61;100.00
49055;BME280;35405;52.344;14.530;2023-02-27T10:02:29;102024.25;;;2.72;100.00
49055;BME280;35405;52.344;14.530;2023-02-27T10:05:01;102027.97;;;2.84;100.00
49055;BME280;35405;52.344;14.530;2023-02-27T10:10:06;102044.09;;;2.84;100.00
49055;BME280;35405;52.344;14.530;2023-02-27T10:17:34;102050.69;;;2.82;100.00
49055;BME280;35405;52.344;14.530;2023-02-27T10:20:01;102056.31;;;2.80;100.00
49055;BME280;35405;52.344;14.530;2023-02-27T10:22:29;102071.81;;;2.98;100.00
49055;BME280;35405;52.344;14.530;2023-02-27T10:24:59;102070.34;;;2.69;100.00
49055;BME280;35405;52.344;14.530;2023-02-27T10:27:26;102082.72;;;2.70;100.00
49055;BME280;35405;52.344;14.530;2023-02-27T10:29:52;102075.06;;;2.73;100.00
49055;BME280;35405;52.344;14.530;2023-02-27T10:32:24;102080.06;;;2.96;100.00
49055;BME280;35405;52.344;14.530;2023-02-27T10:34:52;102089.59;;;2.99;100.00
49055;BME280;35405;52.344;14.530;2023-02-27T10:37:20;102097.00;;;2.97;100.00
49055;BME280;35405;52.344;14.530;2023-02-27T10:39:47;102086.69;;;3.07;100.00
49055;BME280;35405;52.344;14.530;2023-02-27T10:42:14;102080.47;;;3.27;100.00
49055;BME280;35405;52.344;14.530;2023-02-27T10:44:40;102090.59;;;3.44;100.00
49055;BME280;35405;52.344;14.530;2023-02-27T10:47:09;102081.66;;;3.57;100.00
49055;BME280;35405;52.344;14.530;2023-02-27T10:49:36;102089.72;;;3.57;100.00
49055;BME280;35405;52.344;14.530;2023-02-27T10:52:12;102092.41;;;3.57;100.00
49055;BME280;35405;52.344;14.530;2023-02-27T10:54:38;102112.31;;;3.50;100.00
49055;BME280;35405;52.344;14.530;2023-02-27T10:59:41;102102.16;;;3.52;100.00
49055;BME280;35405;52.344;14.530;2023-02-27T11:04:45;102099.66;;;3.57;100.00
49055;BME280;35405;52.344;14.530;2023-02-27T11:07:11;102098.63;;;3.64;100.00
49055;BME280;35405;52.344;14.530;2023-02-27T11:09:39;102111.66;;;3.54;100.00
49055;BME280;35405;52.344;14.530;2023-02-27T11:14:46;102109.19;;;3.53;100.00
49055;BME280;35405;52.344;14.530;2023-02-27T11:17:19;102103.78;;;3.66;100.00
49055;BME280;35405;52.344;14.530;2023-02-27T11:19:44;102095.25;;;3.76;100.00
49055;BME280;35405;52.344;14.530;2023-02-27T11:22:17;102092.41;;;3.57;100.00
49055;BME280;35405;52.344;14.530;2023-02-27T11:24:44;102089.56;;;3.12;100.00
49055;BME280;35405;52.344;14.530;2023-02-27T11:27:23;102087.94;;;2.98;100.00
49055;BME280;35405;52.344;14.530;2023-02-27T11:29:59;102078.41;;;3.09;100.00
49055;BME280;35405;52.344;14.530;2023-02-27T11:32:29;102091.59;;;3.57;100.00
49055;BME280;35405;52.344;14.530;2023-02-27T11:34:56;102088.25;;;3.68;100.00
49055;BME280;35405;52.344;14.530;2023-02-27T11:37:34;102093.66;;;3.68;100.00
49055;BME280;35405;52.344;14.530;2023-02-27T11:42:35;102080.16;;;3.75;100.00
49055;BME280;35405;52.344;14.530;2023-02-27T11:45:04;102088.44;;;3.80;100.00
49055;BME280;35405;52.344;14.530;2023-02-27T11:47:31;102092.03;;;4.19;100.00
49055;BME280;35405;52.344;14.530;2023-02-27T11:55:09;102097.38;;;3.60;100.00
49055;BME280;35405;52.344;14.530;2023-02-27T11:57:40;102092.81;;;3.67;100.00
49055;BME280;35405;52.344;14.530;2023-02-27T12:05:30;102089.50;;;3.65;100.00
49055;BME280;35405;52.344;14.530;2023-02-27T12:10:25;102093.41;;;3.70;100.00
49055;BME280;35405;52.344;14.530;2023-02-27T12:17:50;102092.03;;;3.34;100.00
49055;BME280;35405;52.344;14.530;2023-02-27T12:20:34;102101.38;;;3.11;100.00
49055;BME280;35405;52.344;14.530;2023-02-27T12:23:02;102092.44;;;3.31;100.00
49055;BME280;35405;52.344;14.530;2023-02-27T12:30:41;102092.41;;;3.71;100.00
49055;BME280;35405;52.344;14.530;2023-02-27T12:35:35;102089.31;;;3.67;100.00
49055;BME280;35405;52.344;14.530;2023-02-27T12:38:00;102094.03;;;3.72;100.00
49055;BME280;35405;52.344;14.530;2023-02-27T12:40:36;102103.56;;;3.74;100.00
49055;BME280;35405;52.344;14.530;2023-02-27T12:56:10;102106.06;;;3.62;100.00
49055;BME280;35405;52.344;14.530;2023-02-27T12:58:39;102097.38;;;3.60;100.00
49055;BME280;35405;52.344;14.530;2023-02-27T13:01:27;102091.81;;;3.62;100.00
49055;BME280;35405;52.344;14.530;2023-02-27T13:03:57;102092.16;;;3.79;100.00
49055;BME280;35405;52.344;14.530;2023-02-27T13:06:39;102097.94;;;3.89;100.00
49055;BME280;35405;52.344;14.530;2023-02-27T13:14:34;102102.78;;;3.47;100.00
49055;BME280;35405;52.344;14.530;2023-02-27T13:17:08;102106.13;;;3.29;100.00
49055;BME280;35405;52.344;14.530;2023-02-27T13:22:19;102112.94;;;3.18;100.00
49055;BME280;35405;52.344;14.530;2023-02-27T13:24:50;102109.22;;;3.19;100.00
49055;BME280;35405;52.344;14.530;2023-02-27T13:27:21;102107.78;;;3.24;100.00
49055;BME280;35405;52.344;14.530;2023-02-27T13:29:51;102099.50;;;3.25;100.00
49055;BME280;35405;52.344;14.530;2023-02-27T13:32:30;102112.31;;;3.30;100.00
49055;BME280;35405;52.344;14.530;2023-02-27T13:35:00;102110.44;;;3.30;100.00
49055;BME280;35405;52.344;14.530;2023-02-27T13:40:28;102110.25;;;3.32;100.00
49055;BME280;35405;52.344;14.530;2023-02-27T13:43:00;102107.53;;;3.52;100.00
49055;BME280;35405;52.344;14.530;2023-02-27T13:45:44;102117.44;;;3.58;100.00
49055;BME280;35405;52.344;14.530;2023-02-27T13:50:53;102116.88;;;3.49;100.00
49055;BME280;35405;52.344;14.530;2023-02-27T13:53:19;102111.91;;;3.19;100.00
49055;BME280;35405;52.344;14.530;2023-02-27T13:55:45;102114.81;;;3.11;100.00
49055;BME280;35405;52.344;14.530;2023-02-27T13:58:17;102104.25;;;3.16;100.00
49055;BME280;35405;52.344;14.530;2023-02-27T14:00:51;102106.13;;;3.16;100.00
49055;BME280;35405;52.344;14.530;2023-02-27T14:03:18;102111.47;;;3.09;100.00
49055;BME280;35405;52.344;14.530;2023-02-27T14:05:45;102111.50;;;2.96;100.00
49055;BME280;35405;52.344;14.530;2023-02-27T14:10:36;102114.38;;;2.88;100.00
49055;BME280;35405;52.344;14.530;2023-02-27T14:13:03;102102.97;;;2.86;100.00
49055;BME280;35405;52.344;14.530;2023-02-27T14:17:55;102095.78;;;3.06;100.00
49055;BME280;35405;52.344;14.530;2023-02-27T14:25:39;102106.13;;;3.23;100.00
49055;BME280;35405;52.344;14.530;2023-02-27T14:28:11;102106.72;;;3.25;100.00
49055;BME280;35405;52.344;14.530;2023-02-27T14:30:41;102116.25;;;3.20;100.00
49055;BME280;35405;52.344;14.530;2023-02-27T14:33:20;102113.97;;;3.11;100.00
49055;BME280;35405;52.344;14.530;2023-02-27T14:35:50;102119.13;;;3.12;100.00
49055;BME280;35405;52.344;14.530;2023-02-27T14:38:18;102121.81;;;3.12;100.00
49055;BME280;35405;52.344;14.530;2023-02-27T14:40:54;102124.72;;;2.97;100.00
49055;BME280;35405;52.344;14.530;2023-02-27T14:43:28;102133.00;;;2.89;100.00
49055;BME280;35405;52.344;14.530;2023-02-27T14:46:03;102125.94;;;2.88;100.00
49055;BME280;35405;52.344;14.530;2023-02-27T14:48:29;102126.78;;;2.89;100.00
49055;BME280;35405;52.344;14.530;2023-02-27T14:50:54;102124.47;;;2.86;100.00
49055;BME280;35405;52.344;14.530;2023-02-27T14:53:23;102130.47;;;2.81;100.00
49055;BME280;35405;52.344;14.530;2023-02-27T14:55:53;102133.75;;;2.70;100.00
49055;BME280;35405;52.344;14.530;2023-02-27T14:58:19;102132.31;;;2.67;100.00
49055;BME280;35405;52.344;14.530;2023-02-27T15:03:26;102134.59;;;2.70;100.00
49055;BME280;35405;52.344;14.530;2023-02-27T15:05:54;102136.88;;;2.73;100.00
49055;BME280;35405;52.344;14.530;2023-02-27T15:08:25;102135.22;;;2.72;100.00
49055;BME280;35405;52.344;14.530;2023-02-27T15:10:52;102135.22;;;2.66;100.00
49055;BME280;35405;52.344;14.530;2023-02-27T15:13:20;102142.84;;;2.62;100.00
49055;BME280;35405;52.344;14.530;2023-02-27T15:15:46;102146.13;;;2.64;100.00
49055;BME280;35405;52.344;14.530;2023-02-27T15:18:13;102150.91;;;2.62;100.00
49055;BME280;35405;52.344;14.530;2023-02-27T15:20:38;102149.03;;;2.63;100.00
49055;BME280;35405;52.344;14.530;2023-02-27T15:25:47;102145.31;;;2.57;100.00
49055;BME280;35405;52.344;14.530;2023-02-27T15:28:22;102143.22;;;2.52;100.00
49055;BME280;35405;52.344;14.530;2023-02-27T15:30:48;102152.53;;;2.50;100.00
49055;BME280;35405;52.344;14.530;2023-02-27T15:33:14;102151.06;;;2.47;100.00
49055;BME280;35405;52.344;14.530;2023-02-27T15:35:41;102149.38;;;2.46;100.00
49055;BME280;35405;52.344;14.530;2023-02-27T15:38:20;102145.47;;;2.42;100.00
49055;BME280;35405;52.344;14.530;2023-02-27T15:40:46;102150.81;;;2.36;100.00
49055;BME280;35405;52.344;14.530;2023-02-27T15:43:12;102151.19;;;2.26;100.00
49055;BME280;35405;52.344;14.530;2023-02-27T15:45:37;102155.50;;;2.20;100.00
49055;BME280;35405;52.344;14.530;2023-02-27T15:48:04;102158.38;;;2.19;100.00
49055;BME280;35405;52.344;14.530;2023-02-27T15:50:35;102153.81;;;2.19;100.00
49055;BME280;35405;52.344;14.530;2023-02-27T15:53:19;102154.84;;;2.18;100.00
49055;BME280;35405;52.344;14.530;2023-02-27T15:55:50;102161.25;;;2.11;100.00
49055;BME280;35405;52.344;14.530;2023-02-27T15:58:18;102168.00;;;2.06;100.00
49055;BME280;35405;52.344;14.530;2023-02-27T16:00:44;102170.91;;;2.05;100.00
49055;BME280;35405;52.344;14.530;2023-02-27T16:03:10;102171.09;;;2.03;100.00
49055;BME280;35405;52.344;14.530;2023-02-27T16:05:38;102174.00;;;2.02;100.00
49055;BME280;35405;52.344;14.530;2023-02-27T16:08:05;102169.84;;;1.99;100.00
49055;BME280;35405;52.344;14.530;2023-02-27T16:10:40;102164.47;;;1.99;100.00
49055;BME280;35405;52.344;14.530;2023-02-27T16:15:59;102170.00;;;1.91;100.00
49055;BME280;35405;52.344;14.530;2023-02-27T16:18:32;102172.66;;;1.91;100.00
49055;BME280;35405;52.344;14.530;2023-02-27T16:21:09;102185.25;;;1.91;100.00
49055;BME280;35405;52.344;14.530;2023-02-27T16:23:36;102179.25;;;1.89;100.00
49055;BME280;35405;52.344;14.530;2023-02-27T16:26:20;102180.88;;;1.83;100.00
49055;BME280;35405;52.344;14.530;2023-02-27T16:31:30;102181.03;;;1.75;100.00
49055;BME280;35405;52.344;14.530;2023-02-27T16:33:57;102182.25;;;1.72;100.00
49055;BME280;35405;52.344;14.530;2023-02-27T16:36:23;102186.34;;;1.68;100.00
49055;BME280;35405;52.344;14.530;2023-02-27T16:38:49;102187.75;;;1.64;100.00
49055;BME280;35405;52.344;14.530;2023-02-27T16:41:15;102191.22;;;1.58;100.00
49055;BME280;35405;52.344;14.530;2023-02-27T16:43:41;102194.28;;;1.55;100.00
49055;BME280;35405;52.344;14.530;2023-02-27T16:46:07;102191.78;;;1.53;100.00
49055;BME280;35405;52.344;14.530;2023-02-27T16:48:33;102196.31;;;1.53;100.00
49055;BME280;35405;52.344;14.530;2023-02-27T16:50:58;102197.75;;;1.49;100.00
49055;BME280;35405;52.344;14.530;2023-02-27T16:53:23;102195.06;;;1.49;100.00
49055;BME280;35405;52.344;14.530;2023-02-27T16:55:48;102188.88;;;1.48;100.00
49055;BME280;35405;52.344;14.530;2023-02-27T16:58:14;102192.78;;;1.46;100.00
49055;BME280;35405;52.344;14.530;2023-02-27T17:00:40;102192.78;;;1.46;100.00
49055;BME280;35405;52.344;14.530;2023-02-27T17:03:05;102190.91;;;1.46;100.00
49055;BME280;35405;52.344;14.530;2023-02-27T17:05:31;102200.81;;;1.46;100.00
49055;BME280;35405;52.344;14.530;2023-02-27T17:07:56;102197.50;;;1.44;100.00
49055;BME280;35405;52.344;14.530;2023-02-27T17:10:21;102197.09;;;1.47;100.00
49055;BME280;35405;52.344;14.530;2023-02-27T17:12:48;102207.69;;;1.55;100.00
49055;BME280;35405;52.344;14.530;2023-02-27T17:15:13;102208.72;;;1.54;100.00
49055;BME280;35405;52.344;14.530;2023-02-27T17:17:39;102203.75;;;1.51;100.00
49055;BME280;35405;52.344;14.530;2023-02-27T17:20:04;102209.50;;;1.48;100.00
49055;BME280;35405;52.344;14.530;2023-02-27T17:22:33;102205.78;;;1.49;100.00
49055;BME280;35405;52.344;14.530;2023-02-27T17:24:58;102211.94;;;1.43;100.00
49055;BME280;35405;52.344;14.530;2023-02-27T17:27:23;102218.06;;;1.36;100.00
49055;BME280;35405;52.344;14.530;2023-02-27T17:29:48;102215.31;;;1.30;100.00
49055;BME280;35405;52.344;14.530;2023-02-27T17:32:14;102210.53;;;1.25;100.00
49055;BME280;35405;52.344;14.530;2023-02-27T17:34:39;102204.06;;;1.20;100.00
49055;BME280;35405;52.344;14.530;2023-02-27T17:37:04;102210.91;;;1.22;100.00
49055;BME280;35405;52.344;14.530;2023-02-27T17:39:29;102205.53;;;1.22;100.00
49055;BME280;35405;52.344;14.530;2023-02-27T17:41:55;102218.13;;;1.22;100.00
49055;BME280;35405;52.344;14.530;2023-02-27T17:44:20;102208.81;;;1.18;100.00
49055;BME280;35405;52.344;14.530;2023-02-27T17:46:45;102217.41;;;1.13;100.00
49055;BME280;35405;52.344;14.530;2023-02-27T17:49:10;102218.81;;;1.09;100.00
49055;BME280;35405;52.344;14.530;2023-02-27T17:51:36;102217.34;;;1.06;100.00
49055;BME280;35405;52.344;14.530;2023-02-27T17:54:02;102214.41;;;1.01;100.00
49055;BME280;35405;52.344;14.530;2023-02-27T17:56:28;102214.34;;;0.95;100.00
49055;BME280;35405;52.344;14.530;2023-02-27T17:58:53;102208.16;;;0.94;100.00
49055;BME280;35405;52.344;14.530;2023-02-27T18:01:19;102210.84;;;0.94;100.00
49055;BME280;35405;52.344;14.530;2023-02-27T18:03:46;102215.53;;;0.92;100.00
49055;BME280;35405;52.344;14.530;2023-02-27T18:06:13;102210.19;;;0.92;100.00
49055;BME280;35405;52.344;14.530;2023-02-27T18:08:38;102205.47;;;0.94;100.00
49055;BME280;35405;52.344;14.530;2023-02-27T18:11:07;102210.84;;;0.94;100.00
49055;BME280;35405;52.344;14.530;2023-02-27T18:13:34;102214.72;;;0.91;100.00
49055;BME280;35405;52.344;14.530;2023-02-27T18:15:59;102216.13;;;0.87;100.00
49055;BME280;35405;52.344;14.530;2023-02-27T18:18:24;102211.78;;;0.86;100.00
49055;BME280;35405;52.344;14.530;2023-02-27T18:20:59;102213.47;;;0.87;100.00
49055;BME280;35405;52.344;14.530;2023-02-27T18:23:25;102215.47;;;0.85;100.00
49055;BME280;35405;52.344;14.530;2023-02-27T18:25:54;102209.19;;;0.78;100.00
49055;BME280;35405;52.344;14.530;2023-02-27T18:28:20;102217.16;;;0.72;100.00
49055;BME280;35405;52.344;14.530;2023-02-27T18:30:45;102226.22;;;0.71;100.00
49055;BME280;35405;52.344;14.530;2023-02-27T18:33:10;102219.78;;;0.65;100.00
49055;BME280;35405;52.344;14.530;2023-02-27T18:35:35;102217.28;;;0.63;100.00
49055;BME280;35405;52.344;14.530;2023-02-27T18:38:01;102213.31;;;0.59;100.00
49055;BME280;35405;52.344;14.530;2023-02-27T18:40:27;102212.22;;;0.54;100.00
49055;BME280;35405;52.344;14.530;2023-02-27T18:42:52;102211.75;;;0.50;100.00
49055;BME280;35405;52.344;14.530;2023-02-27T18:45:18;102214.63;;;0.49;100.00
49055;BME280;35405;52.344;14.530;2023-02-27T18:47:44;102218.88;;;0.43;100.00
49055;BME280;35405;52.344;14.530;2023-02-27T18:50:09;102219.25;;;0.40;100.00
49055;BME280;35405;52.344;14.530;2023-02-27T18:52:35;102220.63;;;0.36;100.00
49055;BME280;35405;52.344;14.530;2023-02-27T18:55:00;102224.06;;;0.30;100.00
49055;BME280;35405;52.344;14.530;2023-02-27T18:57:25;102217.50;;;0.32;100.00
49055;BME280;35405;52.344;14.530;2023-02-27T18:59:50;102223.78;;;0.25;100.00
49055;BME280;35405;52.344;14.530;2023-02-27T19:02:16;102228.19;;;0.17;100.00
49055;BME280;35405;52.344;14.530;2023-02-27T19:04:43;102234.66;;;0.08;100.00
49055;BME280;35405;52.344;14.530;2023-02-27T19:07:09;102240.28;;;-0.02;100.00
49055;BME280;35405;52.344;14.530;2023-02-27T19:09:34;102238.91;;;0.03;100.00
49055;BME280;35405;52.344;14.530;2023-02-27T19:11:59;102237.69;;;0.05;100.00
49055;BME280;35405;52.344;14.530;2023-02-27T19:14:25;102240.56;;;0.04;100.00
49055;BME280;35405;52.344;14.530;2023-02-27T19:16:50;102237.91;;;0.04;100.00
49055;BME280;35405;52.344;14.530;2023-02-27T19:19:16;102244.25;;;0.03;100.00
49055;BME280;35405;52.344;14.530;2023-02-27T19:21:41;102247.13;;;0.01;100.00
49055;BME280;35405;52.344;14.530;2023-02-27T19:24:07;102247.84;;;-0.05;100.00
49055;BME280;35405;52.344;14.530;2023-02-27T19:26:32;102245.63;;;-0.02;100.00
49055;BME280;35405;52.344;14.530;2023-02-27T19:28:58;102241.69;;;-0.06;100.00
49055;BME280;35405;52.344;14.530;2023-02-27T19:31:23;102238.78;;;-0.19;100.00
49055;BME280;35405;52.344;14.530;2023-02-27T19:33:49;102248.66;;;-0.19;100.00
49055;BME280;35405;52.344;14.530;2023-02-27T19:36:15;102239.81;;;-0.20;100.00
49055;BME280;35405;52.344;14.530;2023-02-27T19:38:41;102247.16;;;-0.22;100.00
49055;BME280;35405;52.344;14.530;2023-02-27T19:41:07;102243.38;;;-0.28;100.00
49055;BME280;35405;52.344;14.530;2023-02-27T19:43:34;102245.56;;;-0.31;100.00
49055;BME280;35405;52.344;14.530;2023-02-27T19:46:02;102253.69;;;-0.25;100.00
49055;BME280;35405;52.344;14.530;2023-02-27T19:48:28;102249.56;;;-0.12;100.00
49055;BME280;35405;52.344;14.530;2023-02-27T19:50:53;102252.00;;;-0.03;100.00
49055;BME280;35405;52.344;14.530;2023-02-27T19:53:18;102250.81;;;0.00;100.00
49055;BME280;35405;52.344;14.530;2023-02-27T19:55:43;102244.25;;;0.03;100.00
49055;BME280;35405;52.344;14.530;2023-02-27T19:58:08;102253.50;;;0.00;100.00
49055;BME280;35405;52.344;14.530;2023-02-27T20:00:34;102254.69;;;-0.03;100.00
49055;BME280;35405;52.344;14.530;2023-02-27T20:02:59;102256.50;;;-0.03;100.00
49055;BME280;35405;52.344;14.530;2023-02-27T20:05:24;102248.47;;;-0.03;100.00
49055;BME280;35405;52.344;14.530;2023-02-27T20:07:50;102252.63;;;-0.01;100.00
49055;BME280;35405;52.344;14.530;2023-02-27T20:10:16;102255.88;;;-0.05;100.00
49055;BME280;35405;52.344;14.530;2023-02-27T20:12:42;102249.88;;;-0.07;100.00
49055;BME280;35405;52.344;14.530;2023-02-27T20:15:08;102246.72;;;-0.11;100.00
49055;BME280;35405;52.344;14.530;2023-02-27T20:17:35;102253.09;;;-0.12;100.00
49055;BME280;35405;52.344;14.530;2023-02-27T20:20:01;102247.63;;;-0.18;100.00
49055;BME280;35405;52.344;14.530;2023-02-27T20:22:28;102245.31;;;-0.21;100.00
49055;BME280;35405;52.344;14.530;2023-02-27T20:24:54;102248.13;;;-0.15;100.00
49055;BME280;35405;52.344;14.530;2023-02-27T20:27:19;102250.78;;;-0.15;100.00
49055;BME280;35405;52.344;14.530;2023-02-27T20:29:45;102249.94;;;-0.15;100.00
49055;BME280;35405;52.344;14.530;2023-02-27T20:32:12;102255.13;;;-0.14;100.00
49055;BME280;35405;52.344;14.530;2023-02-27T20:34:37;102250.88;;;-0.08;100.00
49055;BME280;35405;52.344;14.530;2023-02-27T20:37:02;102248.38;;;-0.10;100.00
49055;BME280;35405;52.344;14.530;2023-02-27T20:39:27;102246.72;;;-0.11;100.00
49055;BME280;35405;52.344;14.530;2023-02-27T20:41:53;102252.44;;;-0.14;100.00